Terminal Aerodrome Forecast
Issued by NWS

Current Version | Previous Version | Text Only | Print | Product List | Glossary On
Versions: 1 2 3 4 5 6 7 8 9 10 11 12 13 14 15 16 17 18 19 20 21 22 23 24 25 26 27 28 29 30 31 32 33 34 35 36 37 38 39 40 41 42 43 44 45 46 47
000
FTUS43 KMKX 282320
TAFUES
TAF
KUES 282320Z 2900/2924 11007KT P6SM SCT060 BKN150
     FM290600 12006KT P6SM BKN070
     FM291000 13007KT 5SM BR BKN050
     FM291500 19010G15KT P6SM BKN060=

USA.gov is the U.S. government's official web portal to all federal, state and local government web resources and services.